Time;durP1;ratioP1;P1;durP2;ratioP2;P2;SDS_P1;SDS_P2;PMS_P1;PMS_P2;Temp;Humidity;BMP_temperature;BMP_pressure;BME280_temperature;BME280_humidity;BME280_pressure;Samples;Min_cycle;Max_cycle;Signal;HPM_P1;HPM_P2
2022/04/08 00:00:59;;;;;;;0.70;0.70;;;;;;;10.57;79.61;94717.00;5039010;28;20213;-68
2022/04/08 00:03:26;;;;;;;1.00;0.53;;;;;;;10.42;80.03;94727.03;5038087;28;20204;-68
2022/04/08 00:05:54;;;;;;;1.93;1.00;;;;;;;10.50;76.90;94734.66;5039173;28;20603;-68
2022/04/08 00:08:21;;;;;;;2.47;0.70;;;;;;;10.40;78.75;94736.97;5040284;28;20225;-68
2022/04/08 00:10:47;;;;;;;0.70;0.70;;;;;;;10.37;77.50;94737.38;5039949;28;21111;-68
2022/04/08 00:13:14;;;;;;;0.83;0.63;;;;;;;10.42;77.57;94724.38;5037745;28;20219;-68
2022/04/08 00:15:41;;;;;;;0.47;0.47;;;;;;;10.31;75.57;94730.34;5038062;28;20197;-69
2022/04/08 00:18:08;;;;;;;1.13;0.83;;;;;;;10.39;75.90;94743.25;5037862;28;20212;-70
2022/04/08 00:20:35;;;;;;;3.53;0.63;;;;;;;10.41;76.20;94738.56;5036358;28;20205;-68
2022/04/08 00:23:05;;;;;;;0.50;0.50;;;;;;;10.53;76.34;94735.06;5037808;28;20221;-68
2022/04/08 00:25:31;;;;;;;1.57;0.70;;;;;;;10.39;76.41;94743.25;5037926;28;20201;-68
2022/04/08 00:27:58;;;;;;;1.67;0.50;;;;;;;10.20;74.46;94759.16;5037667;28;21246;-68
2022/04/08 00:30:24;;;;;;;0.43;0.43;;;;;;;10.30;74.71;94739.25;5037594;28;20205;-68
2022/04/08 00:32:51;;;;;;;2.73;0.93;;;;;;;10.36;75.59;94751.56;5036488;28;20597;-69
2022/04/08 00:35:18;;;;;;;2.73;1.37;;;;;;;10.20;74.52;94754.69;5037789;28;20708;-67
2022/04/08 00:37:44;;;;;;;0.77;0.50;;;;;;;10.17;74.69;94767.47;5037896;28;20217;-68
2022/04/08 00:40:12;;;;;;;0.67;0.67;;;;;;;10.46;75.42;94770.34;5037642;28;20202;-68
2022/04/08 00:42:40;;;;;;;1.43;0.90;;;;;;;10.12;72.63;94765.47;5037061;28;21076;-68
2022/04/08 00:45:07;;;;;;;3.90;0.97;;;;;;;10.30;72.88;94776.13;5037943;28;20678;-67
2022/04/08 00:47:35;;;;;;;0.27;0.27;;;;;;;10.11;72.61;94768.31;5037161;28;20236;-69
2022/04/08 00:50:03;;;;;;;3.27;0.60;;;;;;;10.10;71.19;94793.81;5037550;28;20208;-67
2022/04/08 00:52:30;;;;;;;1.90;0.97;;;;;;;10.22;70.50;94772.91;5036768;28;20200;-68
2022/04/08 00:54:57;;;;;;;0.57;0.57;;;;;;;10.15;71.72;94770.31;5037838;28;20213;-67
2022/04/08 00:57:25;;;;;;;0.40;0.40;;;;;;;10.25;71.36;94788.28;5037578;28;20590;-68
2022/04/08 00:59:52;;;;;;;2.20;1.27;;;;;;;10.11;70.40;94792.00;5037686;28;20212;-68
2022/04/08 01:02:20;;;;;;;3.40;0.67;;;;;;;10.21;71.05;94787.91;5036910;28;20201;-68
2022/04/08 01:04:46;;;;;;;1.70;0.40;;;;;;;10.01;71.44;94796.88;5037728;28;20197;-68
2022/04/08 01:07:13;;;;;;;0.50;0.50;;;;;;;10.17;71.54;94797.22;5037963;28;20233;-68
2022/04/08 01:09:39;;;;;;;0.80;0.80;;;;;;;10.05;70.74;94801.50;5037473;28;20197;-68
2022/04/08 01:12:06;;;;;;;0.87;0.87;;;;;;;10.03;71.49;94811.47;5037260;28;20200;-68
2022/04/08 01:14:34;;;;;;;3.87;1.63;;;;;;;10.20;70.92;94809.97;5036613;28;20741;-68
2022/04/08 01:17:01;;;;;;;0.50;0.50;;;;;;;10.07;71.22;94807.41;5037915;28;20228;-68
2022/04/08 01:19:27;;;;;;;0.50;0.47;;;;;;;10.02;72.02;94819.56;5037259;28;20216;-68
2022/04/08 01:21:53;;;;;;;1.67;0.70;;;;;;;10.11;72.46;94823.59;5037776;28;20224;-69
2022/04/08 01:24:23;;;;;;;0.80;0.70;;;;;;;10.30;71.50;94814.78;5036436;28;20218;-68
2022/04/08 01:26:53;;;;;;;5.40;1.03;;;;;;;10.15;70.56;94824.78;5037163;28;20232;-68
2022/04/08 01:29:19;;;;;;;2.23;0.60;;;;;;;10.00;70.65;94832.91;5036662;28;20224;-68
2022/04/08 01:31:46;;;;;;;3.70;0.70;;;;;;;10.03;70.21;94827.25;5039331;28;20204;-67
2022/04/08 01:34:12;;;;;;;0.30;0.30;;;;;;;10.01;69.38;94855.56;5040547;28;20654;-68
2022/04/08 01:36:39;;;;;;;1.53;0.70;;;;;;;9.92;68.44;94833.09;5041252;28;20221;-67
2022/04/08 01:39:06;;;;;;;0.63;0.60;;;;;;;10.00;68.95;94832.91;5041834;28;20208;-68
2022/04/08 01:41:33;;;;;;;0.30;0.30;;;;;;;10.09;68.55;94831.66;5040964;28;20212;-67
2022/04/08 01:44:01;;;;;;;0.80;0.70;;;;;;;10.17;68.13;94844.63;5040383;28;20205;-68
2022/04/08 01:46:27;;;;;;;5.53;0.63;;;;;;;9.93;68.83;94828.66;5041190;28;20225;-68
2022/04/08 01:48:54;;;;;;;1.03;0.67;;;;;;;9.93;68.35;94845.25;5041356;28;20232;-68
2022/04/08 01:51:21;;;;;;;1.07;0.50;;;;;;;10.02;68.59;94841.41;5040793;28;20556;-67
2022/04/08 01:53:48;;;;;;;0.30;0.30;;;;;;;10.02;69.30;94835.34;5040276;28;20212;-68
2022/04/08 01:56:15;;;;;;;0.37;0.37;;;;;;;10.07;68.18;94843.41;5040887;28;20213;-68
2022/04/08 01:58:42;;;;;;;0.33;0.33;;;;;;;9.98;68.65;94845.47;5040760;28;20212;-68
2022/04/08 02:01:09;;;;;;;1.00;0.60;;;;;;;10.32;68.78;94847.78;5041440;28;20208;-68
2022/04/08 02:03:36;;;;;;;0.47;0.47;;;;;;;9.95;69.49;94859.03;5040342;28;20212;-68
2022/04/08 02:06:03;;;;;;;1.63;0.47;;;;;;;9.91;69.88;94855.16;5040775;28;20769;-67
2022/04/08 02:08:29;;;;;;;0.30;0.30;;;;;;;9.88;70.61;94860.03;5040872;28;20224;-68
2022/04/08 02:10:56;;;;;;;2.00;0.70;;;;;;;9.90;69.80;94850.94;5040872;28;20202;-68
2022/04/08 02:13:22;;;;;;;0.43;0.37;;;;;;;9.94;69.92;94852.13;5040111;28;20201;-68
2022/04/08 02:15:49;;;;;;;12.13;0.60;;;;;;;10.01;69.32;94852.16;5041470;28;20728;-68
2022/04/08 02:18:17;;;;;;;0.57;0.40;;;;;;;10.07;69.27;94857.41;5041277;28;20564;-68
2022/04/08 02:20:44;;;;;;;0.23;0.23;;;;;;;9.97;69.49;94858.84;5040987;28;20212;-68
2022/04/08 02:23:10;;;;;;;0.47;0.47;;;;;;;9.86;69.41;94856.81;5040022;28;20205;-70
2022/04/08 02:25:37;;;;;;;0.50;0.50;;;;;;;9.87;69.31;94861.06;5040811;28;20658;-70
2022/04/08 02:28:04;;;;;;;0.40;0.40;;;;;;;10.06;68.84;94847.88;5040838;28;20232;-70
2022/04/08 02:30:30;;;;;;;3.30;0.50;;;;;;;9.82;69.83;94834.56;5040329;28;20210;-70
2022/04/08 02:33:01;;;;;;;5.30;0.40;;;;;;;9.84;69.37;94859.66;5040081;28;20212;-71
2022/04/08 02:35:29;;;;;;;1.93;0.60;;;;;;;10.06;68.56;94855.78;5040315;28;20263;-69
2022/04/08 02:37:56;;;;;;;0.40;0.40;;;;;;;9.92;68.12;94859.41;5040592;28;20193;-68
2022/04/08 02:40:22;;;;;;;1.07;0.50;;;;;;;9.99;68.37;94857.63;5037030;28;20201;-67
2022/04/08 02:42:49;;;;;;;4.73;0.73;;;;;;;10.05;69.00;94861.25;5039431;28;20304;-68
2022/04/08 02:45:15;;;;;;;0.40;0.40;;;;;;;9.93;68.45;94855.78;5040380;28;20201;-71
2022/04/08 02:47:42;;;;;;;0.40;0.40;;;;;;;10.03;69.60;94847.47;5040539;28;20224;-68
2022/04/08 02:50:09;;;;;;;3.20;0.80;;;;;;;9.98;68.86;94853.38;5040383;28;20708;-68
2022/04/08 02:52:37;;;;;;;0.50;0.50;;;;;;;10.23;69.25;94851.66;5039568;28;20208;-69
2022/04/08 02:55:05;;;;;;;3.07;0.53;;;;;;;10.24;70.12;94849.84;5040410;28;20201;-69
2022/04/08 02:57:32;;;;;;;0.50;0.50;;;;;;;9.99;70.44;94859.44;5040733;28;20220;-69
2022/04/08 02:59:59;;;;;;;1.67;0.57;;;;;;;10.19;70.89;94857.56;5040459;28;20232;-69
2022/04/08 03:02:26;;;;;;;8.33;1.43;;;;;;;9.99;70.86;94867.31;5039258;28;20212;-68
2022/04/08 03:04:53;;;;;;;2.23;0.73;;;;;;;9.90;71.40;94869.34;5040759;28;20205;-68
2022/04/08 03:07:20;;;;;;;0.30;0.30;;;;;;;9.94;71.23;94878.44;5040080;28;20237;-69
2022/04/08 03:09:48;;;;;;;0.50;0.50;;;;;;;10.15;71.38;94883.47;5039449;28;20221;-69
2022/04/08 03:12:14;;;;;;;0.20;0.20;;;;;;;9.88;70.83;94875.84;5039447;28;20662;-68
2022/04/08 03:14:40;;;;;;;1.07;0.80;;;;;;;9.97;71.54;94870.16;5039193;28;20208;-69
2022/04/08 03:17:07;;;;;;;1.80;0.50;;;;;;;10.05;70.82;94869.94;5039284;28;20326;-68
2022/04/08 03:19:34;;;;;;;0.30;0.30;;;;;;;9.87;71.95;94875.00;5040005;28;20565;-68
2022/04/08 03:22:00;;;;;;;0.90;0.47;;;;;;;10.07;72.19;94867.91;5039817;28;20212;-68
2022/04/08 03:24:27;;;;;;;2.87;0.97;;;;;;;10.11;72.72;94866.50;5039509;28;20201;-68
2022/04/08 03:26:56;;;;;;;6.07;0.60;;;;;;;10.21;73.74;94872.13;5039622;28;20217;-69
2022/04/08 03:29:22;;;;;;;0.77;0.33;;;;;;;9.91;74.79;94875.41;5039933;28;20588;-69
2022/04/08 03:31:49;;;;;;;0.60;0.60;;;;;;;9.83;75.92;94883.53;5039807;28;20201;-68
2022/04/08 03:34:15;;;;;;;1.90;0.60;;;;;;;9.74;76.79;94874.22;5039180;28;20197;-69
2022/04/08 03:36:42;;;;;;;22.07;1.07;;;;;;;9.80;73.30;94866.34;5039769;28;20225;-68
2022/04/08 03:39:09;;;;;;;12.17;1.17;;;;;;;9.78;72.22;94881.50;5039438;28;20201;-69
2022/04/08 03:41:36;;;;;;;1.27;0.70;;;;;;;9.84;70.44;94880.69;5039657;28;20674;-68
2022/04/08 03:44:04;;;;;;;5.80;0.73;;;;;;;9.91;65.58;94884.09;5040497;28;20203;-68
2022/04/08 03:46:31;;;;;;;1.23;0.60;;;;;;;9.81;64.39;94881.09;5040925;28;20224;-68
2022/04/08 03:48:58;;;;;;;0.30;0.30;;;;;;;9.82;64.29;94887.16;5039686;28;20231;-67
2022/04/08 03:51:25;;;;;;;0.40;0.40;;;;;;;9.80;62.33;94883.91;5040418;28;20212;-68
2022/04/08 03:53:51;;;;;;;0.30;0.30;;;;;;;9.84;61.06;94896.47;5039156;28;20224;-68
2022/04/08 03:56:18;;;;;;;0.60;0.47;;;;;;;9.77;60.31;94908.00;5039679;28;20308;-68
2022/04/08 03:58:44;;;;;;;2.93;0.70;;;;;;;9.91;60.53;94899.88;5040209;28;20197;-68
2022/04/08 04:01:13;;;;;;;0.97;0.50;;;;;;;9.79;59.63;94921.78;5040112;28;20194;-69
2022/04/08 04:03:39;;;;;;;0.70;0.70;;;;;;;9.73;59.70;94904.97;5038980;28;21088;-68
2022/04/08 04:06:06;;;;;;;1.43;0.30;;;;;;;9.68;60.08;94921.59;5039299;28;20229;-68
2022/04/08 04:08:32;;;;;;;0.37;0.37;;;;;;;9.65;60.20;94908.81;5040318;28;20302;-68
2022/04/08 04:10:59;;;;;;;2.10;0.40;;;;;;;9.71;61.04;94907.00;5040278;28;20383;-67
2022/04/08 04:13:25;;;;;;;0.80;0.40;;;;;;;9.80;60.93;94931.25;5039005;28;20212;-68
2022/04/08 04:15:52;;;;;;;1.80;0.50;;;;;;;9.62;61.46;94931.06;5039640;28;20217;-67
2022/04/08 04:18:20;;;;;;;1.70;0.40;;;;;;;9.79;61.41;94935.72;5040069;28;20196;-68
2022/04/08 04:20:46;;;;;;;0.83;0.50;;;;;;;9.68;61.78;94916.31;5039655;28;20665;-68
2022/04/08 04:23:13;;;;;;;1.90;0.47;;;;;;;9.70;60.96;94918.53;5037660;28;20205;-67
2022/04/08 04:25:39;;;;;;;0.53;0.30;;;;;;;9.78;61.74;94928.84;5039215;28;20209;-68
2022/04/08 04:28:06;;;;;;;4.87;0.37;;;;;;;9.85;61.99;94913.88;5038796;28;20216;-68
2022/04/08 04:30:33;;;;;;;0.40;0.33;;;;;;;9.86;62.76;94923.41;5038592;28;20210;-68
2022/04/08 04:33:00;;;;;;;2.47;0.50;;;;;;;9.70;63.25;94918.53;5038585;28;20209;-68
2022/04/08 04:35:29;;;;;;;0.30;0.30;;;;;;;9.97;63.98;94922.78;5039222;28;20662;-68
2022/04/08 04:37:56;;;;;;;0.73;0.37;;;;;;;9.75;64.62;94934.53;5039335;28;20201;-68
2022/04/08 04:40:22;;;;;;;0.40;0.33;;;;;;;9.83;65.00;94931.69;5038308;28;20216;-68
2022/04/08 04:42:49;;;;;;;0.20;0.20;;;;;;;9.61;66.88;94931.28;5039118;28;20197;-68
2022/04/08 04:45:15;;;;;;;1.90;0.50;;;;;;;9.73;67.74;94936.53;5039268;28;20205;-68
2022/04/08 04:47:42;;;;;;;1.80;0.60;;;;;;;9.67;67.84;94941.78;5038418;28;20224;-69
2022/04/08 04:50:09;;;;;;;0.80;0.80;;;;;;;9.71;67.87;94951.72;5038923;28;20731;-67
2022/04/08 04:52:37;;;;;;;0.40;0.33;;;;;;;9.83;68.00;94944.03;5038354;28;20346;-68
2022/04/08 04:55:05;;;;;;;3.10;0.50;;;;;;;9.86;68.55;94947.06;5038101;28;20205;-68
2022/04/08 04:57:32;;;;;;;0.87;0.70;;;;;;;9.76;68.56;94945.84;5037506;28;20224;-67
2022/04/08 04:59:58;;;;;;;1.10;0.63;;;;;;;9.87;69.57;94953.13;5037850;28;20263;-66
2022/04/08 05:02:25;;;;;;;6.00;0.87;;;;;;;9.81;69.90;94951.31;5036890;28;20225;-67
2022/04/08 05:04:51;;;;;;;7.83;1.73;;;;;;;9.84;70.01;94954.34;5037402;28;20582;-67
2022/04/08 05:07:18;;;;;;;4.67;0.67;;;;;;;9.78;70.72;94963.03;5037013;28;20216;-67
2022/04/08 05:09:46;;;;;;;0.43;0.43;;;;;;;9.98;70.49;94956.00;5037322;28;20225;-67
2022/04/08 05:12:12;;;;;;;0.97;0.47;;;;;;;10.03;70.91;94956.19;5037202;28;20201;-67
2022/04/08 05:14:39;;;;;;;0.77;0.50;;;;;;;9.90;70.64;94968.50;5037935;28;20201;-66
2022/04/08 05:17:06;;;;;;;0.33;0.33;;;;;;;9.86;71.07;94962.88;5037514;28;20217;-68
2022/04/08 05:19:32;;;;;;;1.73;0.70;;;;;;;9.80;71.66;94970.72;5036903;28;20197;-66
2022/04/08 05:21:59;;;;;;;1.37;0.73;;;;;;;9.74;71.32;94969.72;5037711;28;20212;-68
2022/04/08 05:24:25;;;;;;;0.50;0.50;;;;;;;9.72;71.32;94978.81;5036400;28;20205;-67
2022/04/08 05:26:53;;;;;;;3.90;0.80;;;;;;;9.96;70.14;94973.78;5037066;28;20225;-67
2022/04/08 05:29:20;;;;;;;5.00;0.63;;;;;;;9.53;70.84;94984.06;5036970;28;20224;-67
2022/04/08 05:31:47;;;;;;;6.70;1.40;;;;;;;9.58;71.58;94969.31;5037389;28;20236;-66
2022/04/08 05:34:13;;;;;;;1.80;0.87;;;;;;;9.61;71.48;94970.72;5036414;28;20197;-67
2022/04/08 05:36:40;;;;;;;0.63;0.63;;;;;;;9.54;71.66;94977.81;5036925;28;20244;-68
2022/04/08 05:39:06;;;;;;;1.27;0.83;;;;;;;9.55;72.28;94980.25;5037169;28;20202;-67
2022/04/08 05:41:33;;;;;;;1.90;0.93;;;;;;;9.72;72.47;94977.03;5036320;28;20201;-67
2022/04/08 05:44:01;;;;;;;0.30;0.30;;;;;;;9.82;72.01;94982.66;5036877;28;20201;-67
2022/04/08 05:46:27;;;;;;;4.53;1.23;;;;;;;9.77;73.10;94987.72;5037297;28;20225;-69
2022/04/08 05:48:53;;;;;;;4.13;0.30;;;;;;;9.43;74.17;94983.66;5038362;28;20221;-67
2022/04/08 05:51:20;;;;;;;2.53;0.50;;;;;;;9.39;73.71;94985.88;5036115;28;20209;-67
2022/04/08 05:53:46;;;;;;;4.60;1.03;;;;;;;9.49;74.51;94974.97;5034644;28;20201;-68
2022/04/08 05:56:13;;;;;;;0.30;0.30;;;;;;;9.42;74.41;94984.66;5036525;28;20233;-68
2022/04/08 05:58:39;;;;;;;0.50;0.30;;;;;;;9.52;76.13;94987.72;5036900;28;20629;-67
2022/04/08 06:01:07;;;;;;;2.27;0.40;;;;;;;9.72;76.33;94986.72;5036829;28;20216;-67
2022/04/08 06:03:34;;;;;;;0.33;0.33;;;;;;;9.61;76.77;94994.41;5036608;28;20757;-67
2022/04/08 06:06:00;;;;;;;2.87;0.80;;;;;;;9.55;76.85;95005.72;5036924;28;20515;-67
2022/04/08 06:08:27;;;;;;;0.33;0.33;;;;;;;9.72;77.53;95003.31;5036638;28;20198;-66
2022/04/08 06:10:53;;;;;;;2.63;0.60;;;;;;;9.62;79.16;94996.03;5036552;28;20247;-68
2022/04/08 06:13:24;;;;;;;0.63;0.50;;;;;;;9.44;79.22;95003.69;5036073;28;20209;-67
2022/04/08 06:15:51;;;;;;;4.70;0.83;;;;;;;9.57;80.34;95004.53;5036180;28;20232;-67
2022/04/08 06:18:18;;;;;;;7.63;1.00;;;;;;;9.91;80.35;95001.69;5038127;28;20193;-67
2022/04/08 06:20:45;;;;;;;1.07;0.70;;;;;;;9.61;81.56;94994.41;5040394;28;20199;-67
2022/04/08 06:23:11;;;;;;;4.07;0.63;;;;;;;9.72;82.60;94986.72;5038436;28;20201;-67
2022/04/08 06:25:38;;;;;;;2.60;0.87;;;;;;;9.71;83.29;94993.81;5039479;28;20201;-67
2022/04/08 06:28:07;;;;;;;1.07;0.50;;;;;;;9.78;83.04;94985.91;5040331;28;20225;-68
2022/04/08 06:30:36;;;;;;;3.77;1.00;;;;;;;9.88;83.84;94981.06;5039829;28;20224;-67
2022/04/08 06:33:03;;;;;;;2.07;0.97;;;;;;;9.59;83.25;94991.16;5039672;28;20193;-67
2022/04/08 06:35:32;;;;;;;5.97;0.83;;;;;;;9.74;83.74;94979.44;5040458;28;21148;-67
2022/04/08 06:37:59;;;;;;;0.63;0.37;;;;;;;9.49;82.28;94993.38;5039716;28;20204;-67
2022/04/08 06:40:25;;;;;;;3.50;0.90;;;;;;;9.67;82.99;94988.34;5039666;28;20279;-67
2022/04/08 06:42:55;;;;;;;2.07;0.57;;;;;;;9.54;83.19;94989.13;5039895;28;20223;-67
2022/04/08 06:45:22;;;;;;;5.07;0.97;;;;;;;9.80;83.69;94989.97;5040709;28;20205;-68
2022/04/08 06:47:49;;;;;;;3.40;0.70;;;;;;;9.87;82.86;94982.88;5040524;28;20737;-68
2022/04/08 06:50:16;;;;;;;1.50;0.80;;;;;;;9.81;83.98;94981.06;5042057;28;20228;-68
2022/04/08 06:52:44;;;;;;;1.87;1.43;;;;;;;9.97;83.98;94978.06;5041191;28;20206;-67
2022/04/08 06:55:11;;;;;;;0.50;0.50;;;;;;;9.75;83.31;94981.88;5041282;28;20205;-67
2022/04/08 06:57:38;;;;;;;1.40;0.80;;;;;;;9.63;84.15;94973.97;5040559;28;20753;-67
2022/04/08 07:00:06;;;;;;;4.60;0.90;;;;;;;9.70;84.77;94973.78;5040159;28;20204;-67
2022/04/08 07:02:32;;;;;;;4.43;1.13;;;;;;;9.67;84.06;94962.03;5040400;28;20208;-67
2022/04/08 07:04:59;;;;;;;0.80;0.60;;;;;;;9.47;83.56;94969.09;5041830;28;20955;-68
2022/04/08 07:07:28;;;;;;;1.47;1.07;;;;;;;9.60;84.23;94961.22;5040162;28;20236;-67
2022/04/08 07:09:57;;;;;;;3.40;0.60;;;;;;;9.74;83.91;94964.47;5040393;28;20217;-67
2022/04/08 07:12:24;;;;;;;0.63;0.53;;;;;;;9.52;82.94;94958.78;5037675;28;20247;-67
2022/04/08 07:14:51;;;;;;;1.87;0.70;;;;;;;9.41;84.11;94952.31;5038647;28;20212;-67
2022/04/08 07:17:17;;;;;;;1.77;0.53;;;;;;;9.43;83.15;94955.56;5038132;28;20228;-67
2022/04/08 07:19:44;;;;;;;4.00;0.80;;;;;;;9.49;82.95;94948.69;5038221;28;20585;-67
2022/04/08 07:22:10;;;;;;;1.10;0.53;;;;;;;9.88;82.75;94954.75;5037488;28;20208;-67
2022/04/08 07:24:36;;;;;;;3.57;0.40;;;;;;;9.56;81.16;94949.47;5037431;28;20205;-67
2022/04/08 07:27:04;;;;;;;2.80;0.53;;;;;;;9.54;82.00;94941.81;5037822;28;20225;-67
2022/04/08 07:29:31;;;;;;;2.73;0.70;;;;;;;9.55;81.23;94947.88;5037510;28;20229;-67
2022/04/08 07:31:57;;;;;;;4.47;1.23;;;;;;;9.49;79.88;94940.78;5037599;28;20219;-67
2022/04/08 07:34:24;;;;;;;0.50;0.50;;;;;;;9.42;80.53;94945.22;5036588;28;20607;-67
2022/04/08 07:36:51;;;;;;;2.63;0.40;;;;;;;9.17;80.44;94945.00;5037591;28;20588;-67
2022/04/08 07:39:17;;;;;;;0.40;0.40;;;;;;;9.07;80.99;94950.84;5038277;28;20224;-67
2022/04/08 07:41:43;;;;;;;0.30;0.30;;;;;;;9.01;81.99;94941.91;5037966;28;20208;-66
2022/04/08 07:44:11;;;;;;;0.50;0.50;;;;;;;9.19;83.27;94942.19;5037107;28;20228;-66
2022/04/08 07:46:38;;;;;;;0.77;0.43;;;;;;;9.34;82.52;94932.28;5037498;28;20221;-67
2022/04/08 07:49:04;;;;;;;0.43;0.40;;;;;;;9.43;82.82;94942.41;5037672;28;20208;-67
2022/04/08 07:51:31;;;;;;;0.77;0.77;;;;;;;9.53;82.87;94932.28;5037652;28;20209;-67
2022/04/08 07:53:57;;;;;;;1.37;0.43;;;;;;;9.53;82.14;94939.38;5036669;28;20212;-67
2022/04/08 07:56:24;;;;;;;0.40;0.40;;;;;;;9.70;82.76;94936.16;5037255;28;20580;-67
2022/04/08 07:58:50;;;;;;;1.90;0.53;;;;;;;9.31;83.83;94935.31;5038403;28;20212;-67
2022/04/08 08:01:18;;;;;;;0.70;0.53;;;;;;;9.63;84.15;94929.28;5037330;28;20674;-67
2022/04/08 08:03:46;;;;;;;0.73;0.47;;;;;;;9.46;83.01;94933.31;5036534;28;20661;-67
2022/04/08 08:06:12;;;;;;;0.73;0.67;;;;;;;9.66;83.96;94928.84;5036921;28;20415;-67
2022/04/08 08:08:39;;;;;;;1.13;0.73;;;;;;;9.55;83.92;94926.84;5037384;28;20201;-66
2022/04/08 08:11:11;;;;;;;1.23;0.97;;;;;;;9.99;85.01;94915.50;5037136;28;20267;-68
2022/04/08 08:13:38;;;;;;;1.30;0.47;;;;;;;10.19;85.07;94911.00;5036583;28;20735;-67
2022/04/08 08:16:06;;;;;;;2.83;0.73;;;;;;;10.34;86.27;94916.84;5037335;28;20233;-67
2022/04/08 08:18:34;;;;;;;1.70;0.90;;;;;;;10.24;85.50;94919.09;5037607;28;20212;-67
2022/04/08 08:21:00;;;;;;;1.90;1.10;;;;;;;10.38;85.27;94908.31;5036541;28;20320;-67
2022/04/08 08:23:27;;;;;;;4.43;1.67;;;;;;;10.02;86.12;94898.50;5036049;28;20212;-67
2022/04/08 08:25:55;;;;;;;5.07;1.10;;;;;;;9.97;85.82;94899.09;5036398;28;20224;-67
2022/04/08 08:28:22;;;;;;;1.50;0.50;;;;;;;10.10;85.15;94901.72;5036550;28;20221;-67
2022/04/08 08:30:48;;;;;;;1.70;0.50;;;;;;;10.16;86.18;94890.38;5037010;28;20223;-67
2022/04/08 08:33:15;;;;;;;1.00;0.83;;;;;;;10.22;85.54;94886.91;5036536;28;20204;-67
2022/04/08 08:35:44;;;;;;;3.23;0.77;;;;;;;10.61;85.77;94884.91;5036996;28;20201;-67
2022/04/08 08:38:11;;;;;;;7.43;1.40;;;;;;;10.57;86.50;94889.00;5037799;28;20205;-66
2022/04/08 08:40:38;;;;;;;1.97;1.10;;;;;;;10.34;87.12;94882.63;5037532;28;20193;-67
2022/04/08 08:43:04;;;;;;;2.47;1.00;;;;;;;10.23;87.85;94880.63;5036611;28;20194;-67
2022/04/08 08:45:32;;;;;;;3.53;1.10;;;;;;;9.86;87.22;94880.47;5037172;28;20204;-67
2022/04/08 08:48:01;;;;;;;6.03;1.23;;;;;;;9.73;85.67;94873.41;5036714;28;20207;-68
2022/04/08 08:50:28;;;;;;;2.70;0.90;;;;;;;9.73;88.06;94870.78;5036304;28;20221;-67
2022/04/08 08:52:57;;;;;;;1.60;0.90;;;;;;;10.30;88.29;94859.53;5035826;28;20227;-67
2022/04/08 08:55:24;;;;;;;1.63;0.60;;;;;;;10.62;85.33;94856.78;5036487;28;20208;-67
2022/04/08 08:57:52;;;;;;;1.50;1.00;;;;;;;10.49;85.92;94839.19;5036277;28;20251;-67
2022/04/08 09:00:20;;;;;;;4.40;1.07;;;;;;;10.35;85.17;94842.91;5036674;28;20315;-67
2022/04/08 09:02:49;;;;;;;4.83;0.90;;;;;;;10.39;85.60;94833.56;5036637;28;20193;-67
2022/04/08 09:05:17;;;;;;;3.47;1.00;;;;;;;10.99;86.40;94825.94;5037212;28;20198;-67
2022/04/08 09:07:52;;;;;;;15.17;2.17;;;;;;;10.78;85.91;94822.03;5037117;28;20225;-67
2022/04/08 09:10:24;;;;;;;5.57;1.80;;;;;;;11.22;85.11;94820.88;5036819;28;20228;-68
2022/04/08 09:12:54;;;;;;;3.03;0.80;;;;;;;11.25;85.30;94809.94;5036678;28;20410;-67
2022/04/08 09:15:20;;;;;;;3.57;1.53;;;;;;;11.27;83.45;94805.22;5037467;28;20212;-67
2022/04/08 09:17:47;;;;;;;4.80;1.40;;;;;;;11.11;85.01;94802.31;5037730;28;20216;-68
2022/04/08 09:20:14;;;;;;;6.23;1.93;;;;;;;11.18;84.85;94811.78;5037312;28;20208;-67
2022/04/08 09:22:40;;;;;;;1.27;0.90;;;;;;;11.13;83.81;94806.34;5036909;28;20201;-67
2022/04/08 09:25:09;;;;;;;2.03;1.10;;;;;;;11.37;82.76;94797.66;5037829;28;20201;-68
2022/04/08 09:27:38;;;;;;;2.60;0.87;;;;;;;11.47;83.91;94790.06;5037052;28;20264;-67
2022/04/08 09:30:07;;;;;;;3.20;1.07;;;;;;;11.32;83.12;94789.56;5038241;28;20221;-67
2022/04/08 09:32:34;;;;;;;2.87;0.53;;;;;;;10.65;85.43;94778.13;5036026;28;20201;-68
2022/04/08 09:35:01;;;;;;;2.33;1.33;;;;;;;10.81;87.63;94776.81;5036913;28;20854;-68
2022/04/08 09:37:28;;;;;;;5.23;1.30;;;;;;;11.07;87.17;94770.34;5037553;28;20227;-67
2022/04/08 09:39:56;;;;;;;1.30;1.00;;;;;;;11.18;85.28;94766.19;5037728;28;20207;-68
2022/04/08 09:42:23;;;;;;;1.23;0.90;;;;;;;10.94;86.19;94751.16;5036810;28;20209;-67
2022/04/08 09:44:51;;;;;;;6.77;2.03;;;;;;;10.97;85.67;94740.19;5036712;28;21150;-67
2022/04/08 09:47:18;;;;;;;8.23;1.07;;;;;;;10.95;83.46;94740.41;5036890;28;20217;-67
2022/04/08 09:49:44;;;;;;;2.90;1.10;;;;;;;11.19;86.76;94730.91;5037050;28;20208;-67
2022/04/08 09:52:12;;;;;;;7.07;1.00;;;;;;;10.66;84.54;94731.53;5036474;28;20729;-67
2022/04/08 09:54:43;;;;;;;7.50;1.27;;;;;;;11.18;86.21;94730.06;5040733;28;20209;-67
2022/04/08 09:57:17;;;;;;;8.20;1.47;;;;;;;11.59;85.09;94706.56;5041277;28;20236;-67
2022/04/08 09:59:46;;;;;;;2.37;1.10;;;;;;;11.58;85.65;94694.38;5042867;28;20205;-67
2022/04/08 10:02:15;;;;;;;4.00;1.30;;;;;;;11.14;84.48;94702.53;5042179;28;20205;-67
2022/04/08 10:04:43;;;;;;;1.43;0.93;;;;;;;11.55;85.28;94689.56;5042390;28;20863;-67
2022/04/08 10:07:10;;;;;;;1.40;0.83;;;;;;;11.47;86.56;94687.19;5042238;28;20217;-67
2022/04/08 10:09:47;;;;;;;3.03;1.50;;;;;;;11.55;86.76;94685.09;5042319;28;20205;-67
2022/04/08 10:12:20;;;;;;;2.83;1.43;;;;;;;11.24;88.02;94673.03;5041180;28;20201;-67
2022/04/08 10:14:54;;;;;;;2.97;1.17;;;;;;;11.38;90.48;94666.59;5040596;28;20205;-67
2022/04/08 10:17:23;;;;;;;5.07;1.80;;;;;;;11.01;90.08;94660.50;5040911;28;20231;-67
2022/04/08 10:19:49;;;;;;;2.37;1.03;;;;;;;11.02;89.67;94648.09;5040124;28;20197;-67
2022/04/08 10:22:17;;;;;;;0.77;0.70;;;;;;;10.98;88.17;94650.41;5039702;28;20197;-67
2022/04/08 10:24:53;;;;;;;3.83;0.90;;;;;;;11.08;87.61;94642.75;5040588;28;20209;-67
2022/04/08 10:27:29;;;;;;;3.40;1.10;;;;;;;11.21;90.45;94626.81;5041531;28;20232;-67
2022/04/08 10:29:56;;;;;;;6.50;1.10;;;;;;;10.81;91.41;94624.00;5041133;28;20632;-68
2022/04/08 10:32:24;;;;;;;1.60;0.90;;;;;;;11.06;90.08;94621.09;5040088;28;20623;-67
2022/04/08 10:34:51;;;;;;;4.30;1.30;;;;;;;10.87;92.46;94612.59;5040452;28;20931;-68
2022/04/08 10:37:20;;;;;;;2.67;1.40;;;;;;;11.00;92.56;94600.88;5039189;28;20224;-67
2022/04/08 10:39:56;;;;;;;1.70;1.20;;;;;;;10.89;93.69;94598.16;5039635;28;20204;-66
2022/04/08 10:42:23;;;;;;;5.43;1.17;;;;;;;10.58;96.57;94589.56;5038868;28;20208;-67
2022/04/08 10:44:50;;;;;;;2.47;0.87;;;;;;;10.63;95.50;94577.34;5039170;28;20206;-67
2022/04/08 10:47:17;;;;;;;3.67;1.60;;;;;;;10.76;96.04;94571.16;5039480;28;20913;-67
2022/04/08 10:49:50;;;;;;;5.27;1.80;;;;;;;10.93;95.11;94573.81;5040059;28;20206;-67
2022/04/08 10:52:18;;;;;;;1.73;1.10;;;;;;;10.94;96.04;94559.59;5038455;28;20224;-67
2022/04/08 10:54:45;;;;;;;1.43;1.00;;;;;;;10.80;96.15;94559.16;5039354;28;20735;-67
2022/04/08 10:57:12;;;;;;;1.10;0.93;;;;;;;10.93;96.74;94551.91;5039366;28;20217;-67
2022/04/08 10:59:39;;;;;;;3.30;1.30;;;;;;;11.15;95.17;94543.34;5039493;28;20857;-67
2022/04/08 11:02:10;;;;;;;6.10;1.40;;;;;;;10.87;96.28;94542.28;5039134;28;20193;-67
2022/04/08 11:04:37;;;;;;;1.13;0.93;;;;;;;11.04;95.96;94536.16;5038144;28;20580;-67
2022/04/08 11:07:07;;;;;;;1.50;0.90;;;;;;;11.35;96.56;94530.72;5039444;28;20225;-67
2022/04/08 11:09:34;;;;;;;1.23;1.00;;;;;;;11.20;95.72;94525.03;5039214;28;20209;-67
2022/04/08 11:12:02;;;;;;;3.10;1.20;;;;;;;11.24;96.66;94518.28;5039798;28;20224;-67
2022/04/08 11:14:29;;;;;;;1.03;0.93;;;;;;;11.20;97.23;94511.88;5039262;28;20201;-67
2022/04/08 11:16:56;;;;;;;1.90;0.97;;;;;;;11.07;95.64;94509.41;5038904;28;20220;-68
2022/04/08 11:19:23;;;;;;;3.70;1.00;;;;;;;11.25;96.67;94509.38;5039339;28;20677;-68
2022/04/08 11:21:51;;;;;;;12.90;3.70;;;;;;;11.14;96.65;94496.91;5040503;28;20201;-67
2022/04/08 11:24:19;;;;;;;1.80;1.20;;;;;;;11.35;96.90;94477.97;5038021;28;20193;-67
2022/04/08 11:26:48;;;;;;;1.80;0.90;;;;;;;11.45;96.65;94477.44;5038608;28;20225;-67
2022/04/08 11:29:16;;;;;;;3.27;1.50;;;;;;;11.44;96.67;94470.56;5039092;28;20271;-67
2022/04/08 11:31:44;;;;;;;2.90;1.90;;;;;;;11.28;97.82;94472.00;5039148;28;20308;-67
2022/04/08 11:34:11;;;;;;;4.70;1.90;;;;;;;11.50;97.58;94459.94;5039180;28;20665;-67
2022/04/08 11:36:38;;;;;;;2.73;1.70;;;;;;;11.45;98.57;94451.88;5039231;28;20217;-67